Time;durP1;ratioP1;P1;durP2;ratioP2;P2;SDS_P1;SDS_P2;PMS_P1;PMS_P2;Temp;Humidity;BMP_temperature;BMP_pressure;BME280_temperature;BME280_humidity;BME280_pressure;Samples;Min_cycle;Max_cycle;Signal;HPM_P1;HPM_P2
2024/01/04 00:00:59;;;;;;;2.37;1.20;;;22.30;81.30;;;;;;5011904;28;20462;-57
2024/01/04 00:03:28;;;;;;;3.90;1.33;;;22.30;81.40;;;;;;5014093;28;20477;-60
2024/01/04 00:05:57;;;;;;;2.67;1.27;;;22.30;81.40;;;;;;5013741;28;20458;-56
2024/01/04 00:08:27;;;;;;;2.83;1.70;;;22.30;81.40;;;;;;5010199;28;20457;-59
2024/01/04 00:10:53;;;;;;;2.43;1.30;;;22.30;81.40;;;;;;5013338;28;20475;-60
2024/01/04 00:13:20;;;;;;;2.00;1.20;;;22.20;81.30;;;;;;5005398;28;20471;-58
2024/01/04 00:15:47;;;;;;;1.00;0.83;;;22.20;81.40;;;;;;5011733;28;20464;-58
2024/01/04 00:18:13;;;;;;;1.90;1.47;;;22.20;81.50;;;;;;5010361;28;20986;-58
2024/01/04 00:20:40;;;;;;;2.37;1.40;;;22.20;81.70;;;;;;5010685;28;20457;-63
2024/01/04 00:23:07;;;;;;;3.00;1.30;;;22.20;81.70;;;;;;5011956;28;20466;-63
2024/01/04 00:25:35;;;;;;;4.70;1.47;;;22.20;81.70;;;;;;5013960;28;20851;-61
2024/01/04 00:28:05;;;;;;;3.40;1.60;;;22.10;81.70;;;;;;5012773;28;21041;-62
2024/01/04 00:30:35;;;;;;;11.33;1.90;;;22.10;81.70;;;;;;5008601;28;20844;-64
2024/01/04 00:33:01;;;;;;;8.30;1.20;;;22.10;81.70;;;;;;5015560;28;20462;-63
2024/01/04 00:35:36;;;;;;;3.40;1.20;;;22.10;81.70;;;;;;5013752;28;20466;-63
2024/01/04 00:38:02;;;;;;;3.90;1.67;;;22.10;81.80;;;;;;5015163;28;20456;-63
2024/01/04 00:40:29;;;;;;;3.53;1.40;;;22.00;81.60;;;;;;5012344;28;20458;-63
2024/01/04 00:42:58;;;;;;;6.60;1.30;;;22.00;81.70;;;;;;5017669;28;20466;-63
2024/01/04 00:45:27;;;;;;;3.07;1.20;;;22.00;81.80;;;;;;5010566;28;20581;-64
2024/01/04 00:47:54;;;;;;;4.70;2.53;;;22.00;81.80;;;;;;5011944;28;20465;-64
2024/01/04 00:50:20;;;;;;;4.73;1.33;;;22.00;81.70;;;;;;5011586;28;20469;-64
2024/01/04 00:52:50;;;;;;;3.17;1.40;;;21.90;81.60;;;;;;5017486;28;20988;-64
2024/01/04 00:55:16;;;;;;;1.60;1.13;;;22.00;81.70;;;;;;5013094;28;20473;-64
2024/01/04 00:57:45;;;;;;;2.47;1.07;;;21.90;81.60;;;;;;5013595;28;20467;-64
2024/01/04 01:00:20;;;;;;;1.70;1.40;;;21.90;81.60;;;;;;5012417;28;20466;-64
2024/01/04 01:02:47;;;;;;;1.63;1.27;;;21.90;81.60;;;;;;5008071;28;20467;-64
2024/01/04 01:05:15;;;;;;;4.60;1.57;;;21.90;81.50;;;;;;5015504;28;20987;-64
2024/01/04 01:07:41;;;;;;;1.63;1.20;;;21.90;81.50;;;;;;5011871;28;20457;-64
2024/01/04 01:10:10;;;;;;;2.40;1.63;;;21.90;81.60;;;;;;5018906;28;20462;-64
2024/01/04 01:12:37;;;;;;;2.00;1.20;;;21.80;81.50;;;;;;5017180;28;25075;-64
2024/01/04 01:15:04;;;;;;;1.47;1.00;;;21.80;81.60;;;;;;5012322;28;20470;-64
2024/01/04 01:17:32;;;;;;;2.57;1.37;;;21.80;81.50;;;;;;5020749;28;20461;-64
2024/01/04 01:20:01;;;;;;;2.40;1.30;;;21.80;81.50;;;;;;5015578;28;20953;-64
2024/01/04 01:22:28;;;;;;;2.30;1.10;;;21.80;81.70;;;;;;5017988;28;20805;-64
2024/01/04 01:24:56;;;;;;;2.47;1.10;;;21.70;81.60;;;;;;5016901;28;20479;-63
2024/01/04 01:27:25;;;;;;;2.63;1.20;;;21.70;81.80;;;;;;5016163;28;20466;-63
2024/01/04 01:29:55;;;;;;;1.97;1.20;;;21.70;81.70;;;;;;5006396;28;20457;-63
2024/01/04 01:32:21;;;;;;;1.93;1.17;;;21.70;81.70;;;;;;5009966;28;20526;-63
2024/01/04 01:34:49;;;;;;;4.00;1.00;;;21.60;81.60;;;;;;5015379;28;20488;-63
2024/01/04 01:37:22;;;;;;;2.30;1.10;;;21.70;81.80;;;;;;5017686;28;20465;-63
2024/01/04 01:40:02;;;;;;;1.90;1.00;;;21.70;81.70;;;;;;5010311;28;20454;-63
2024/01/04 01:42:29;;;;;;;2.67;0.97;;;21.70;81.70;;;;;;5016928;28;20527;-63
2024/01/04 01:44:56;;;;;;;1.30;0.90;;;21.60;81.70;;;;;;5011229;28;20979;-63
2024/01/04 01:47:24;;;;;;;2.60;1.20;;;21.60;81.70;;;;;;5015846;28;20477;-63
2024/01/04 01:49:54;;;;;;;1.92;1.20;;;21.60;81.60;;;;;;5011598;28;21083;-63
2024/01/04 01:52:25;;;;;;;1.80;0.90;;;21.60;81.70;;;;;;5014594;28;20904;-63
2024/01/04 01:54:55;;;;;;;1.83;1.03;;;21.60;81.60;;;;;;5015776;28;20219;-63
2024/01/04 01:57:22;;;;;;;3.73;1.07;;;21.60;81.50;;;;;;5016929;28;20462;-63
2024/01/04 01:59:50;;;;;;;1.55;1.15;;;21.50;81.60;;;;;;5011939;28;20465;-63
2024/01/04 02:02:17;;;;;;;2.85;1.00;;;21.50;81.60;;;;;;5012577;28;20213;-63
2024/01/04 02:04:46;;;;;;;2.20;1.30;;;21.50;82.50;;;;;;5013549;28;23516;-63
2024/01/04 02:07:14;;;;;;;3.30;1.25;;;21.50;81.80;;;;;;5014446;28;20986;-63
2024/01/04 02:09:41;;;;;;;1.52;0.98;;;21.50;82.10;;;;;;5012428;28;20285;-63
2024/01/04 02:12:13;;;;;;;1.65;1.25;;;21.40;81.90;;;;;;5011635;28;20462;-63
2024/01/04 02:14:42;;;;;;;2.90;1.13;;;21.40;81.90;;;;;;5019902;28;22138;-63
2024/01/04 02:17:11;;;;;;;2.77;1.47;;;21.40;81.80;;;;;;5016006;28;20552;-63
2024/01/04 02:19:39;;;;;;;1.80;0.90;;;21.50;82.00;;;;;;5015385;28;20464;-63
2024/01/04 02:22:12;;;;;;;1.30;1.00;;;21.40;82.00;;;;;;5015814;28;20509;-63
2024/01/04 02:24:42;;;;;;;1.53;0.90;;;21.40;81.70;;;;;;5014975;28;20470;-63
2024/01/04 02:27:09;;;;;;;3.20;1.00;;;21.40;81.90;;;;;;5021858;28;20934;-63
2024/01/04 02:29:35;;;;;;;2.85;1.20;;;21.40;81.90;;;;;;5017359;28;20474;-63
2024/01/04 02:32:02;;;;;;;1.77;1.00;;;21.40;81.90;;;;;;5019954;28;20188;-63
2024/01/04 02:34:32;;;;;;;2.22;1.10;;;21.30;81.90;;;;;;5016565;28;20528;-63
2024/01/04 02:36:59;;;;;;;2.00;1.07;;;21.30;81.80;;;;;;5012566;28;20192;-64
2024/01/04 02:39:29;;;;;;;1.30;1.10;;;21.30;81.70;;;;;;5016449;28;20462;-63
2024/01/04 02:41:57;;;;;;;1.73;0.85;;;21.30;81.70;;;;;;5014856;28;20557;-63
2024/01/04 02:44:24;;;;;;;1.30;1.15;;;21.30;81.90;;;;;;5018952;28;20199;-63
2024/01/04 02:46:52;;;;;;;1.25;1.00;;;21.30;81.90;;;;;;5013455;28;20211;-63
2024/01/04 02:49:20;;;;;;;1.70;1.23;;;21.30;82.00;;;;;;5014073;28;20277;-63
2024/01/04 02:51:47;;;;;;;2.15;1.17;;;21.30;82.30;;;;;;5007372;28;20192;-63
2024/01/04 02:54:17;;;;;;;2.00;1.23;;;21.30;82.10;;;;;;5011868;28;20204;-63
2024/01/04 02:56:45;;;;;;;1.60;0.80;;;21.30;82.40;;;;;;5015157;28;20489;-63
2024/01/04 02:59:15;;;;;;;1.45;0.98;;;21.20;82.20;;;;;;5015492;28;20313;-63
2024/01/04 03:01:49;;;;;;;3.97;1.40;;;21.20;82.20;;;;;;5009204;28;20202;-63
2024/01/04 03:04:16;;;;;;;1.45;0.82;;;21.20;82.10;;;;;;5013698;28;20212;-63
2024/01/04 03:06:46;;;;;;;1.33;0.98;;;21.20;82.10;;;;;;5013050;28;20649;-63
2024/01/04 03:09:20;;;;;;;2.20;1.10;;;21.20;81.80;;;;;;5014721;28;20443;-64
2024/01/04 03:11:47;;;;;;;1.67;1.20;;;21.20;82.30;;;;;;5005949;28;20206;-63
2024/01/04 03:14:17;;;;;;;3.60;1.37;;;21.20;82.10;;;;;;5012003;28;20473;-63
2024/01/04 03:16:44;;;;;;;1.23;0.70;;;21.20;82.00;;;;;;5021290;28;20461;-64
2024/01/04 03:19:10;;;;;;;1.40;1.00;;;21.20;82.30;;;;;;5014439;28;20811;-64
2024/01/04 03:21:42;;;;;;;1.30;0.95;;;21.20;82.00;;;;;;5013534;28;20455;-63
2024/01/04 03:24:09;;;;;;;3.58;1.20;;;21.20;82.30;;;;;;5013989;28;20196;-63
2024/01/04 03:26:37;;;;;;;1.63;1.10;;;21.20;81.90;;;;;;5018231;28;20226;-63
2024/01/04 03:29:04;;;;;;;1.58;0.95;;;21.10;81.90;;;;;;5008540;28;20846;-63
2024/01/04 03:31:33;;;;;;;2.08;1.10;;;21.10;82.10;;;;;;5016158;28;20201;-63
2024/01/04 03:33:59;;;;;;;1.90;0.93;;;21.10;82.10;;;;;;5014787;28;20235;-63
2024/01/04 03:36:26;;;;;;;1.88;1.15;;;21.10;82.10;;;;;;5015723;28;21415;-63
2024/01/04 03:38:56;;;;;;;1.20;0.85;;;21.10;82.30;;;;;;5016356;28;20199;-63
2024/01/04 03:41:23;;;;;;;1.50;1.20;;;21.10;82.10;;;;;;5015774;28;20203;-63
2024/01/04 03:43:50;;;;;;;2.50;1.33;;;21.10;82.30;;;;;;5013777;28;20556;-63
2024/01/04 03:46:20;;;;;;;1.80;1.20;;;21.10;82.40;;;;;;5012862;28;20454;-63
2024/01/04 03:48:50;;;;;;;1.70;0.90;;;21.10;82.30;;;;;;5012824;28;20283;-63
2024/01/04 03:51:19;;;;;;;1.20;0.87;;;21.00;82.10;;;;;;5014964;28;20542;-63
2024/01/04 03:53:47;;;;;;;1.60;0.95;;;21.00;82.00;;;;;;5013966;28;20455;-63
2024/01/04 03:56:19;;;;;;;1.58;0.85;;;21.00;82.00;;;;;;5008755;28;20224;-63
2024/01/04 03:58:46;;;;;;;1.70;1.13;;;21.00;82.00;;;;;;5013291;28;20199;-63
2024/01/04 04:01:13;;;;;;;1.55;1.13;;;21.00;82.00;;;;;;5014866;28;20203;-63
2024/01/04 04:03:47;;;;;;;1.70;1.40;;;21.00;82.10;;;;;;5017859;28;20225;-63
2024/01/04 04:06:15;;;;;;;1.15;0.85;;;21.00;82.00;;;;;;5013673;28;20207;-63
2024/01/04 04:08:41;;;;;;;1.98;1.08;;;21.00;82.20;;;;;;5011565;28;20207;-63
2024/01/04 04:11:18;;;;;;;1.35;0.80;;;20.90;82.10;;;;;;5016882;28;20208;-63
2024/01/04 04:13:47;;;;;;;2.08;1.15;;;20.90;82.10;;;;;;5014967;28;20194;-63
2024/01/04 04:16:14;;;;;;;1.73;1.08;;;21.00;82.20;;;;;;5015646;28;20552;-63
2024/01/04 04:18:42;;;;;;;1.52;1.17;;;20.90;82.30;;;;;;5014421;28;20942;-63
2024/01/04 04:21:09;;;;;;;1.77;0.98;;;21.00;82.30;;;;;;5018808;28;20203;-63
2024/01/04 04:23:37;;;;;;;1.90;1.00;;;20.90;82.40;;;;;;5011731;28;20643;-63
2024/01/04 04:26:06;;;;;;;1.80;1.00;;;20.90;82.50;;;;;;5015657;28;20592;-63
2024/01/04 04:28:33;;;;;;;2.40;1.20;;;20.90;82.30;;;;;;5012199;28;20196;-63
2024/01/04 04:31:03;;;;;;;1.55;0.98;;;21.00;82.00;;;;;;5010330;28;20465;-63
2024/01/04 04:33:30;;;;;;;1.80;1.25;;;20.90;82.30;;;;;;5013474;28;20674;-63
2024/01/04 04:35:56;;;;;;;1.60;1.00;;;20.90;82.10;;;;;;5014277;28;20218;-63
2024/01/04 04:38:23;;;;;;;3.95;1.67;;;20.90;81.90;;;;;;5010302;28;20199;-64
2024/01/04 04:40:54;;;;;;;2.10;1.02;;;20.90;82.30;;;;;;5010909;28;20200;-64
2024/01/04 04:43:20;;;;;;;1.77;1.30;;;20.90;82.30;;;;;;5015221;28;20195;-63
2024/01/04 04:45:47;;;;;;;1.30;0.93;;;20.90;82.30;;;;;;5015590;28;20656;-63
2024/01/04 04:48:14;;;;;;;1.10;0.70;;;20.90;82.10;;;;;;5018722;28;20223;-63
2024/01/04 04:50:42;;;;;;;1.50;1.00;;;20.80;81.90;;;;;;5018933;28;20773;-63
2024/01/04 04:53:17;;;;;;;1.80;0.90;;;20.80;82.10;;;;;;5016897;28;20203;-63
2024/01/04 04:55:44;;;;;;;1.38;0.90;;;20.80;82.00;;;;;;5020479;28;20240;-63
2024/01/04 04:58:12;;;;;;;1.40;1.00;;;20.80;82.10;;;;;;5020250;28;20657;-63
2024/01/04 05:00:40;;;;;;;1.55;0.88;;;20.80;82.10;;;;;;5019098;28;20208;-63
2024/01/04 05:03:07;;;;;;;1.80;1.20;;;20.80;82.30;;;;;;5023932;28;20195;-64
2024/01/04 05:05:34;;;;;;;1.25;0.90;;;20.80;82.20;;;;;;5018575;28;20204;-64
2024/01/04 05:08:05;;;;;;;1.30;0.90;;;20.80;82.50;;;;;;5010513;28;20200;-63
2024/01/04 05:10:32;;;;;;;2.55;1.27;;;20.80;82.60;;;;;;5020136;28;20352;-63
2024/01/04 05:12:59;;;;;;;1.45;0.95;;;20.80;82.70;;;;;;5020821;28;20195;-63
2024/01/04 05:15:27;;;;;;;1.88;1.00;;;20.80;82.30;;;;;;5017421;28;20219;-63
2024/01/04 05:17:56;;;;;;;1.05;0.75;;;20.80;82.60;;;;;;5015555;28;20664;-63
2024/01/04 05:20:25;;;;;;;1.17;1.00;;;20.80;82.20;;;;;;5019598;28;20966;-63
2024/01/04 05:22:51;;;;;;;1.40;0.80;;;20.80;82.50;;;;;;5011161;28;20651;-63
2024/01/04 05:25:20;;;;;;;2.50;1.00;;;20.70;82.30;;;;;;5016547;28;20462;-63
2024/01/04 05:27:48;;;;;;;1.20;0.90;;;20.70;82.20;;;;;;5014811;28;20290;-63
2024/01/04 05:30:17;;;;;;;2.67;0.80;;;20.70;82.70;;;;;;5014417;28;20207;-63
2024/01/04 05:32:49;;;;;;;2.88;1.00;;;20.70;82.20;;;;;;5013698;28;20203;-63
2024/01/04 05:35:19;;;;;;;1.33;0.85;;;20.70;82.30;;;;;;5017945;28;20223;-63
2024/01/04 05:37:50;;;;;;;1.98;1.00;;;20.70;82.20;;;;;;5008049;28;20207;-63
2024/01/04 05:40:17;;;;;;;1.00;0.80;;;20.70;82.30;;;;;;5007577;28;20205;-63
2024/01/04 05:42:46;;;;;;;1.05;0.75;;;20.70;82.30;;;;;;5017968;28;20223;-63
2024/01/04 05:45:15;;;;;;;1.25;0.90;;;20.70;82.50;;;;;;5014542;28;20721;-63
2024/01/04 05:47:42;;;;;;;1.30;1.10;;;20.70;82.20;;;;;;5016417;28;20686;-63
2024/01/04 05:50:10;;;;;;;1.50;0.80;;;20.70;82.30;;;;;;5014894;28;20958;-63
2024/01/04 05:52:40;;;;;;;1.77;0.90;;;20.70;82.40;;;;;;5013515;28;20200;-63
2024/01/04 05:55:13;;;;;;;1.17;0.80;;;20.70;82.50;;;;;;5016071;28;20199;-63
2024/01/04 05:57:40;;;;;;;2.25;1.10;;;20.70;82.50;;;;;;5015822;28;20203;-63
2024/01/04 06:00:10;;;;;;;2.10;1.00;;;20.70;82.70;;;;;;5012459;28;20199;-63
2024/01/04 06:02:40;;;;;;;1.42;0.90;;;20.70;82.60;;;;;;5022402;28;20203;-63
2024/01/04 06:05:07;;;;;;;1.10;0.80;;;20.70;82.60;;;;;;5015947;28;20505;-63
2024/01/04 06:07:38;;;;;;;1.30;0.95;;;20.60;82.20;;;;;;5019186;28;20802;-63
2024/01/04 06:10:05;;;;;;;1.60;0.80;;;20.60;82.40;;;;;;5012649;28;20932;-63
2024/01/04 06:12:35;;;;;;;1.30;0.70;;;20.70;82.50;;;;;;5018004;28;20949;-63
2024/01/04 06:15:08;;;;;;;1.50;0.80;;;20.60;82.00;;;;;;5017607;28;20196;-63
2024/01/04 06:17:34;;;;;;;1.45;1.10;;;20.60;82.40;;;;;;5015972;28;20227;-63
2024/01/04 06:20:03;;;;;;;1.13;0.75;;;20.60;82.20;;;;;;5018944;28;20522;-63
2024/01/04 06:22:29;;;;;;;1.00;0.65;;;20.60;82.40;;;;;;5022484;28;20200;-63
2024/01/04 06:24:57;;;;;;;1.40;1.00;;;20.60;82.20;;;;;;5017960;28;20199;-63
2024/01/04 06:27:27;;;;;;;1.10;0.80;;;20.60;82.20;;;;;;5019880;28;21063;-63
2024/01/04 06:29:54;;;;;;;1.40;0.73;;;20.60;82.60;;;;;;5017437;28;20288;-63
2024/01/04 06:32:21;;;;;;;1.30;0.70;;;20.60;82.50;;;;;;5015480;28;20814;-63
2024/01/04 06:34:48;;;;;;;1.30;0.98;;;20.60;82.40;;;;;;5019542;28;20458;-63
2024/01/04 06:37:16;;;;;;;1.10;0.77;;;20.60;82.40;;;;;;5015822;28;21080;-63
2024/01/04 06:39:45;;;;;;;0.97;0.67;;;20.60;82.20;;;;;;5012174;28;20459;-63
2024/01/04 06:42:15;;;;;;;1.25;1.00;;;20.60;82.50;;;;;;5018217;28;20458;-63
2024/01/04 06:44:45;;;;;;;1.63;0.88;;;20.60;82.40;;;;;;5012515;28;20198;-63
2024/01/04 06:47:15;;;;;;;1.25;0.98;;;20.60;82.30;;;;;;5012948;28;20717;-63
2024/01/04 06:49:43;;;;;;;1.15;0.95;;;20.60;82.40;;;;;;5019254;28;20199;-63
2024/01/04 06:52:09;;;;;;;1.40;1.00;;;20.60;82.20;;;;;;5013737;28;20949;-63
2024/01/04 06:54:36;;;;;;;1.88;1.08;;;20.60;82.40;;;;;;5018224;28;20839;-63
2024/01/04 06:57:07;;;;;;;1.20;0.85;;;20.60;82.80;;;;;;5015978;28;20512;-62
2024/01/04 06:59:35;;;;;;;1.30;0.80;;;20.60;83.40;;;;;;5020549;28;20669;-62
2024/01/04 07:02:04;;;;;;;1.45;0.85;;;20.50;82.70;;;;;;5020037;28;20196;-62
2024/01/04 07:04:34;;;;;;;1.25;0.90;;;20.50;82.40;;;;;;5015875;28;20191;-61
2024/01/04 07:07:00;;;;;;;1.20;0.80;;;20.50;82.10;;;;;;5012539;28;20229;-62
2024/01/04 07:09:30;;;;;;;1.50;0.90;;;20.50;82.20;;;;;;5010754;28;20199;-62
2024/01/04 07:11:57;;;;;;;1.35;0.85;;;20.50;82.40;;;;;;5019268;28;20206;-62
2024/01/04 07:14:24;;;;;;;0.93;0.70;;;20.50;82.90;;;;;;5015500;28;20192;-62
2024/01/04 07:16:57;;;;;;;1.17;0.90;;;20.50;82.40;;;;;;5017085;28;20216;-62
2024/01/04 07:19:25;;;;;;;1.67;0.80;;;20.50;82.30;;;;;;5016634;28;20195;-62
2024/01/04 07:21:52;;;;;;;1.13;0.73;;;20.50;82.40;;;;;;5014365;28;21234;-62
2024/01/04 07:24:21;;;;;;;1.00;0.70;;;20.50;82.30;;;;;;5015994;28;20273;-61
2024/01/04 07:26:47;;;;;;;1.38;0.80;;;20.50;82.40;;;;;;5015464;28;20462;-61
2024/01/04 07:29:14;;;;;;;1.45;0.80;;;20.50;82.40;;;;;;5012215;28;20198;-62
2024/01/04 07:31:41;;;;;;;2.85;1.10;;;20.50;82.40;;;;;;5016101;28;21083;-62
2024/01/04 07:34:11;;;;;;;1.08;0.82;;;20.50;82.60;;;;;;5017378;28;20194;-60
2024/01/04 07:36:41;;;;;;;1.33;0.80;;;20.50;82.50;;;;;;5012602;28;20215;-61
2024/01/04 07:39:08;;;;;;;1.65;1.00;;;20.50;82.60;;;;;;5012621;28;20190;-61
2024/01/04 07:41:41;;;;;;;2.17;1.00;;;20.50;83.00;;;;;;5011568;28;20207;-61
2024/01/04 07:44:08;;;;;;;1.00;0.75;;;20.50;82.90;;;;;;5010403;28;20210;-61
2024/01/04 07:46:35;;;;;;;1.45;0.90;;;20.50;82.90;;;;;;5016159;28;20213;-62
2024/01/04 07:49:03;;;;;;;1.75;1.42;;;20.50;83.10;;;;;;5011976;28;20201;-60
2024/01/04 07:51:31;;;;;;;1.13;0.90;;;20.50;83.10;;;;;;5007575;28;20191;-62
2024/01/04 07:54:01;;;;;;;1.55;0.90;;;20.60;83.50;;;;;;5009463;28;20497;-61
2024/01/04 07:56:28;;;;;;;1.73;1.08;;;20.60;83.20;;;;;;5008620;28;20219;-61
2024/01/04 07:58:56;;;;;;;1.38;0.70;;;20.60;83.10;;;;;;5014871;28;20204;-60
2024/01/04 08:01:23;;;;;;;1.30;0.90;;;20.60;83.00;;;;;;5006531;28;20203;-61
2024/01/04 08:03:52;;;;;;;1.17;0.85;;;20.60;83.10;;;;;;5014965;28;20666;-62
2024/01/04 08:06:21;;;;;;;1.15;0.70;;;20.60;83.00;;;;;;5016883;28;20773;-63
2024/01/04 08:08:51;;;;;;;1.75;1.10;;;20.70;83.10;;;;;;5009202;28;20219;-61
2024/01/04 08:11:16;;;;;;;1.53;0.80;;;20.70;83.10;;;;;;5008625;28;20352;-61
2024/01/04 08:13:43;;;;;;;1.20;0.83;;;20.70;83.20;;;;;;5014817;28;20461;-64
2024/01/04 08:16:12;;;;;;;1.00;0.70;;;20.70;83.10;;;;;;5013844;28;20237;-62
2024/01/04 08:18:41;;;;;;;1.50;0.80;;;20.80;83.40;;;;;;5013854;28;20662;-63
2024/01/04 08:21:10;;;;;;;1.23;1.02;;;20.70;83.10;;;;;;5010716;28;20769;-63
2024/01/04 08:23:39;;;;;;;1.42;0.90;;;20.80;84.00;;;;;;5013580;28;20796;-63
2024/01/04 08:26:10;;;;;;;1.35;0.70;;;20.80;83.20;;;;;;5018464;28;21063;-62
2024/01/04 08:28:38;;;;;;;1.58;0.95;;;20.80;83.90;;;;;;5016557;28;20218;-62
2024/01/04 08:31:10;;;;;;;1.10;0.80;;;20.80;83.20;;;;;;5016346;28;20211;-63
2024/01/04 08:33:37;;;;;;;1.40;0.80;;;20.80;83.20;;;;;;5013037;28;20597;-64
2024/01/04 08:36:13;;;;;;;1.75;1.10;;;20.80;83.20;;;;;;5012814;28;20459;-62
2024/01/04 08:38:42;;;;;;;0.90;0.70;;;20.90;83.40;;;;;;5014378;28;20197;-63
2024/01/04 08:41:12;;;;;;;2.13;0.97;;;20.90;83.30;;;;;;5010766;28;20461;-63
2024/01/04 08:43:42;;;;;;;1.10;0.90;;;20.90;83.30;;;;;;5011387;28;20462;-62
2024/01/04 08:46:10;;;;;;;1.00;0.70;;;20.90;83.70;;;;;;5006338;28;20660;-63
2024/01/04 08:48:38;;;;;;;1.50;0.80;;;20.90;83.40;;;;;;5011703;28;20670;-61
2024/01/04 08:51:05;;;;;;;1.00;0.75;;;20.90;83.40;;;;;;5008199;28;20462;-64
2024/01/04 08:53:32;;;;;;;1.10;0.80;;;20.90;83.50;;;;;;5012944;28;20201;-61
2024/01/04 08:55:59;;;;;;;1.00;0.70;;;21.00;83.70;;;;;;5011979;28;20454;-61
2024/01/04 08:58:27;;;;;;;1.20;0.70;;;21.00;83.70;;;;;;5010918;28;20230;-62
2024/01/04 09:00:55;;;;;;;1.10;0.80;;;21.00;83.60;;;;;;5004428;28;20207;-63
2024/01/04 09:03:22;;;;;;;1.00;0.67;;;21.00;83.80;;;;;;5011559;28;20293;-63
2024/01/04 09:05:49;;;;;;;1.10;0.73;;;21.00;83.60;;;;;;5009743;28;20871;-63
2024/01/04 09:08:18;;;;;;;1.77;0.70;;;21.00;83.50;;;;;;5006912;28;20458;-60
2024/01/04 09:10:46;;;;;;;1.07;0.73;;;21.00;83.50;;;;;;5011031;28;20458;-61
2024/01/04 09:13:13;;;;;;;2.37;0.90;;;21.10;83.70;;;;;;5010904;28;20516;-64
2024/01/04 09:15:45;;;;;;;1.20;0.90;;;21.10;83.70;;;;;;5012239;28;20472;-64
2024/01/04 09:18:11;;;;;;;1.23;0.70;;;21.10;83.80;;;;;;5013794;28;20489;-65
2024/01/04 09:20:40;;;;;;;1.20;0.90;;;21.10;83.50;;;;;;5015741;28;20651;-64
2024/01/04 09:23:10;;;;;;;2.47;0.80;;;21.00;82.60;;;;;;5015033;28;20670;-64
2024/01/04 09:25:37;;;;;;;1.27;0.80;;;21.00;83.70;;;;;;5013173;28;20642;-62
2024/01/04 09:28:04;;;;;;;2.80;0.90;;;21.00;82.80;;;;;;5014882;28;20220;-64
2024/01/04 09:30:31;;;;;;;1.57;0.80;;;21.00;82.70;;;;;;5010628;28;20462;-64
2024/01/04 09:33:02;;;;;;;1.50;0.80;;;21.00;82.60;;;;;;5010815;28;20458;-62
2024/01/04 09:35:28;;;;;;;1.83;0.90;;;21.00;83.10;;;;;;5012669;28;20453;-64
2024/01/04 09:37:57;;;;;;;1.00;0.70;;;21.00;82.90;;;;;;5012079;28;20690;-64
2024/01/04 09:40:26;;;;;;;1.30;0.70;;;21.00;82.90;;;;;;5016344;28;20463;-62
2024/01/04 09:42:56;;;;;;;1.40;0.80;;;21.00;82.70;;;;;;5012498;28;20851;-62
2024/01/04 09:45:27;;;;;;;1.97;0.97;;;21.00;82.60;;;;;;5008799;28;20544;-63
2024/01/04 09:47:56;;;;;;;1.60;0.80;;;21.00;82.60;;;;;;5012417;28;20473;-63
2024/01/04 09:50:24;;;;;;;2.00;0.77;;;21.00;82.60;;;;;;5016780;28;20520;-62
2024/01/04 09:52:54;;;;;;;1.00;0.70;;;21.10;82.50;;;;;;5008090;28;20464;-61
2024/01/04 09:55:24;;;;;;;0.90;0.67;;;21.00;82.30;;;;;;5013360;28;20519;-63
2024/01/04 09:57:53;;;;;;;1.17;0.80;;;21.10;82.40;;;;;;5009752;28;20488;-63
2024/01/04 10:00:27;;;;;;;1.67;0.90;;;21.10;82.30;;;;;;5007617;28;20772;-63
2024/01/04 10:02:54;;;;;;;0.90;0.60;;;21.00;82.50;;;;;;5005456;28;20454;-63
2024/01/04 10:05:28;;;;;;;1.37;0.80;;;21.00;82.90;;;;;;5010954;28;20747;-62
2024/01/04 10:08:11;;;;;;;2.10;1.07;;;21.10;82.60;;;;;;5012478;28;20476;-61
2024/01/04 10:10:41;;;;;;;2.10;0.90;;;21.10;82.20;;;;;;5010340;28;21009;-62
2024/01/04 10:13:13;;;;;;;1.20;0.93;;;21.10;82.00;;;;;;5008639;28;21449;-61
2024/01/04 10:15:47;;;;;;;2.60;0.80;;;21.10;82.40;;;;;;5012331;28;20465;-60
2024/01/04 10:18:17;;;;;;;1.10;0.80;;;21.20;82.70;;;;;;5014671;28;20575;-63
2024/01/04 10:21:00;;;;;;;1.97;0.80;;;21.10;82.40;;;;;;5016841;28;20951;-63
2024/01/04 10:23:27;;;;;;;1.50;0.93;;;21.10;82.50;;;;;;5010475;28;20469;-63
2024/01/04 10:26:06;;;;;;;0.90;0.70;;;21.10;82.40;;;;;;5006564;28;20462;-64
2024/01/04 10:28:38;;;;;;;1.00;0.80;;;21.20;82.40;;;;;;5013009;28;20580;-63
2024/01/04 10:31:09;;;;;;;1.03;0.70;;;21.20;82.40;;;;;;5009921;28;20469;-63
2024/01/04 10:33:42;;;;;;;2.20;1.07;;;21.20;82.30;;;;;;5013218;28;20449;-64
2024/01/04 10:36:16;;;;;;;1.17;0.80;;;21.20;82.40;;;;;;5012788;28;20469;-63
2024/01/04 10:38:43;;;;;;;1.13;0.80;;;21.20;82.30;;;;;;5007321;28;20478;-64
2024/01/04 10:41:18;;;;;;;2.03;0.80;;;21.20;82.30;;;;;;5006072;28;20466;-64
2024/01/04 10:43:45;;;;;;;1.53;0.90;;;21.20;82.30;;;;;;5006853;28;20461;-64
2024/01/04 10:46:15;;;;;;;1.20;0.70;;;21.10;82.10;;;;;;5007829;28;21089;-64
2024/01/04 10:48:48;;;;;;;1.90;0.70;;;21.20;82.50;;;;;;5010543;28;20466;-63
2024/01/04 10:51:18;;;;;;;2.00;0.77;;;21.20;82.70;;;;;;5012507;28;20453;-61
2024/01/04 10:53:46;;;;;;;5.22;0.95;;;21.20;83.00;;;;;;5012001;28;21076;-62
2024/01/04 10:56:16;;;;;;;1.10;0.80;;;21.20;82.90;;;;;;5013649;28;20213;-63
2024/01/04 10:58:49;;;;;;;3.27;0.97;;;21.20;82.50;;;;;;5014069;28;20941;-61
2024/01/04 11:01:16;;;;;;;1.93;0.73;;;21.20;82.60;;;;;;5007693;28;20561;-60
2024/01/04 11:03:48;;;;;;;6.70;1.10;;;21.20;83.10;;;;;;5013608;28;20954;-60
2024/01/04 11:06:19;;;;;;;1.20;0.70;;;21.20;83.10;;;;;;5011173;28;20958;-60
2024/01/04 11:08:51;;;;;;;8.93;0.90;;;21.20;83.10;;;;;;5014312;28;20485;-58
2024/01/04 11:11:21;;;;;;;3.80;0.87;;;21.30;83.20;;;;;;5015237;28;20458;-59
2024/01/04 11:13:50;;;;;;;1.53;0.90;;;21.30;83.20;;;;;;5013050;28;20489;-60
2024/01/04 11:16:33;;;;;;;1.33;0.70;;;21.30;83.30;;;;;;5012754;28;20454;-58
2024/01/04 11:19:11;;;;;;;1.20;0.70;;;21.40;83.40;;;;;;5013320;28;21099;-61
2024/01/04 11:22:07;;;;;;;1.40;0.80;;;21.30;83.20;;;;;;5012891;28;20463;-60
2024/01/04 11:24:44;;;;;;;1.10;0.80;;;21.30;83.20;;;;;;5014414;28;20470;-57
2024/01/04 11:27:14;;;;;;;1.00;0.70;;;21.30;83.10;;;;;;5015555;28;20461;-59
2024/01/04 11:29:45;;;;;;;1.30;0.70;;;21.30;83.10;;;;;;5011778;28;20940;-60
2024/01/04 11:32:12;;;;;;;2.13;0.70;;;21.40;83.10;;;;;;5008601;28;20515;-56
2024/01/04 11:34:41;;;;;;;1.00;0.70;;;21.40;83.20;;;;;;5014921;28;20463;-60
2024/01/04 11:37:11;;;;;;;1.00;0.80;;;21.40;83.20;;;;;;5009421;28;20490;-60
2024/01/04 11:40:03;;;;;;;2.90;0.70;;;21.40;83.40;;;;;;5010637;28;20471;-57
2024/01/04 11:42:37;;;;;;;1.40;0.83;;;21.40;83.30;;;;;;5008003;28;20501;-61
2024/01/04 11:45:18;;;;;;;1.10;0.80;;;21.40;83.10;;;;;;5012246;28;21000;-58
2024/01/04 11:47:46;;;;;;;2.20;0.70;;;21.40;83.10;;;;;;5008708;28;20466;-57
2024/01/04 11:50:17;;;;;;;4.10;0.60;;;21.40;83.30;;;;;;5012918;28;20941;-60
2024/01/04 11:52:48;;;;;;;0.90;0.60;;;21.40;83.20;;;;;;5014441;28;20459;-59
2024/01/04 11:55:26;;;;;;;1.20;0.70;;;21.40;83.10;;;;;;5013136;28;20470;-59
2024/01/04 11:58:04;;;;;;;1.10;0.80;;;21.40;83.10;;;;;;5012722;28;20951;-60
2024/01/04 12:00:33;;;;;;;1.27;0.63;;;21.40;83.10;;;;;;5007867;28;20472;-59
2024/01/04 12:03:02;;;;;;;1.63;0.80;;;21.40;83.10;;;;;;5014004;28;20462;-60
2024/01/04 12:05:34;;;;;;;1.40;0.90;;;21.40;83.10;;;;;;5013332;28;20978;-60
2024/01/04 12:08:04;;;;;;;1.13;0.80;;;21.40;83.10;;;;;;5012927;28;20886;-60
2024/01/04 12:10:31;;;;;;;1.63;0.93;;;21.40;83.00;;;;;;5014319;28;20835;-60
2024/01/04 12:12:57;;;;;;;1.00;0.70;;;21.40;83.00;;;;;;5005892;28;20556;-63
2024/01/04 12:15:26;;;;;;;2.03;1.00;;;21.40;82.90;;;;;;5002282;28;21405;-62
2024/01/04 12:17:52;;;;;;;1.73;0.80;;;21.40;82.50;;;;;;5003456;28;20478;-65
2024/01/04 12:20:19;;;;;;;7.23;0.80;;;21.40;82.50;;;;;;5011818;28;21005;-63
2024/01/04 12:22:48;;;;;;;1.27;0.80;;;21.40;82.70;;;;;;5010755;28;20458;-65
2024/01/04 12:25:17;;;;;;;1.87;0.90;;;21.50;83.00;;;;;;5007155;28;21039;-63
2024/01/04 12:27:45;;;;;;;2.03;0.90;;;21.50;83.10;;;;;;5004746;28;20471;-60
2024/01/04 12:30:12;;;;;;;1.20;0.80;;;21.50;83.10;;;;;;5005969;28;20473;-64
2024/01/04 12:32:40;;;;;;;1.27;0.70;;;21.50;83.20;;;;;;5010143;28;20945;-63
2024/01/04 12:35:16;;;;;;;2.47;1.00;;;21.50;83.20;;;;;;5009024;28;20504;-64
2024/01/04 12:37:43;;;;;;;1.00;0.70;;;21.50;83.30;;;;;;5006013;28;20476;-58
2024/01/04 12:40:16;;;;;;;1.73;0.70;;;21.50;83.20;;;;;;5006968;28;20462;-59
2024/01/04 12:42:44;;;;;;;1.00;0.73;;;21.50;83.20;;;;;;5006568;28;20465;-55
2024/01/04 12:45:13;;;;;;;1.30;0.73;;;21.50;83.10;;;;;;5009890;28;20462;-55
2024/01/04 12:47:39;;;;;;;3.37;0.80;;;21.50;83.10;;;;;;5007746;28;20454;-59
2024/01/04 12:50:09;;;;;;;2.30;0.90;;;21.50;82.90;;;;;;5006291;28;20899;-58
2024/01/04 12:52:37;;;;;;;4.07;1.13;;;21.50;82.90;;;;;;5012058;28;20787;-57
2024/01/04 12:55:08;;;;;;;2.07;0.90;;;21.50;82.90;;;;;;5009166;28;20584;-61
2024/01/04 12:57:37;;;;;;;12.63;1.10;;;21.60;83.20;;;;;;5007138;28;21647;-61